Time;durP1;ratioP1;P1;durP2;ratioP2;P2;SDS_P1;SDS_P2;PMS_P1;PMS_P2;Temp;Humidity;BMP_temperature;BMP_pressure;BME280_temperature;BME280_humidity;BME280_pressure;Samples;Min_cycle;Max_cycle;Signal;HPM_P1;HPM_P2
2024/03/10 10:05:32;;;;;;;7.60;3.90;;;13.10;99.90;;;;;;4916559;29;20221;-74
2024/03/10 10:07:59;;;;;;;9.33;4.37;;;13.10;99.90;;;;;;4918876;29;20201;-74
2024/03/10 10:10:26;;;;;;;10.43;4.70;;;13.40;99.90;;;;;;4912361;29;20313;-74
2024/03/10 10:12:54;;;;;;;8.80;4.20;;;13.60;99.90;;;;;;4900146;29;20262;-74
2024/03/10 10:15:22;;;;;;;10.67;5.27;;;13.80;99.90;;;;;;4899612;29;20222;-75
2024/03/10 10:17:55;;;;;;;10.10;4.60;;;13.70;99.90;;;;;;4900035;29;20218;-74
2024/03/10 10:20:25;;;;;;;8.53;3.77;;;13.60;99.90;;;;;;4899655;29;20236;-74
2024/03/10 10:22:54;;;;;;;9.07;4.27;;;13.60;99.90;;;;;;4899478;29;20273;-73
2024/03/10 10:25:22;;;;;;;8.33;4.10;;;13.70;99.90;;;;;;4899383;29;20221;-73
2024/03/10 10:27:50;;;;;;;6.80;3.67;;;13.80;99.90;;;;;;4899311;29;20207;-74
2024/03/10 10:30:19;;;;;;;7.80;3.60;;;13.80;99.90;;;;;;4899207;29;20227;-73
2024/03/10 10:32:47;;;;;;;6.80;3.37;;;13.60;99.90;;;;;;4898973;29;20221;-75
2024/03/10 10:35:16;;;;;;;7.83;3.73;;;13.50;99.90;;;;;;4899453;29;20211;-72
2024/03/10 10:37:46;;;;;;;6.90;3.63;;;13.50;99.90;;;;;;4899371;29;20333;-74
2024/03/10 10:40:15;;;;;;;8.00;3.60;;;13.40;99.90;;;;;;4898955;29;20293;-72
2024/03/10 10:42:42;;;;;;;8.47;4.57;;;13.30;99.90;;;;;;4899188;29;20277;-72
2024/03/10 10:45:10;;;;;;;7.63;4.00;;;13.30;99.90;;;;;;4899244;29;20213;-72
2024/03/10 10:47:37;;;;;;;11.83;4.10;;;13.40;99.90;;;;;;4899496;29;20617;-72
2024/03/10 10:50:14;;;;;;;7.40;4.03;;;13.40;99.90;;;;;;4899358;29;20230;-75
2024/03/10 10:52:45;;;;;;;8.03;4.37;;;13.50;99.90;;;;;;4899477;29;20221;-73
2024/03/10 10:55:12;;;;;;;8.47;3.97;;;13.50;99.90;;;;;;4898647;29;20233;-72
2024/03/10 10:57:46;;;;;;;8.87;4.07;;;13.50;99.90;;;;;;4899339;29;20206;-72
2024/03/10 11:00:27;;;;;;;9.50;4.00;;;13.30;99.90;;;;;;4898697;29;20786;-72
2024/03/10 11:03:14;;;;;;;7.53;3.20;;;13.30;99.90;;;;;;4897930;29;20242;-73
2024/03/10 11:05:42;;;;;;;7.27;3.53;;;13.50;99.90;;;;;;4898753;29;20723;-72
2024/03/10 11:08:13;;;;;;;8.37;4.30;;;13.50;99.90;;;;;;4898983;29;20702;-73
2024/03/10 11:10:45;;;;;;;11.53;4.30;;;13.50;99.90;;;;;;4898851;29;20660;-72
2024/03/10 11:13:14;;;;;;;8.77;4.30;;;13.60;99.90;;;;;;4899126;29;20221;-71
2024/03/10 11:15:41;;;;;;;8.27;4.50;;;13.50;99.90;;;;;;4897574;29;20242;-71
2024/03/10 11:18:25;;;;;;;8.17;4.27;;;13.50;99.90;;;;;;4898790;29;20245;-72
2024/03/10 11:20:53;;;;;;;7.47;4.20;;;13.40;99.90;;;;;;4898347;29;20651;-72
2024/03/10 11:23:24;;;;;;;8.33;4.17;;;13.40;99.90;;;;;;4898558;29;20253;-74
2024/03/10 11:25:51;;;;;;;9.33;4.27;;;13.00;99.90;;;;;;4898296;29;20210;-72
2024/03/10 11:28:25;;;;;;;9.17;4.00;;;12.60;99.90;;;;;;4898439;29;20723;-72
2024/03/10 11:30:56;;;;;;;8.90;4.23;;;12.60;99.90;;;;;;4898810;29;20232;-72
2024/03/10 11:33:24;;;;;;;8.03;4.20;;;12.70;99.90;;;;;;4898608;29;20245;-72
2024/03/10 11:35:53;;;;;;;6.27;3.43;;;13.20;99.90;;;;;;4897786;29;20210;-73
2024/03/10 11:38:21;;;;;;;7.60;4.03;;;13.10;99.90;;;;;;4898552;29;20215;-74
2024/03/10 11:40:59;;;;;;;8.00;4.33;;;13.30;99.90;;;;;;4898011;29;20226;-72
2024/03/10 11:43:26;;;;;;;10.00;4.53;;;13.50;99.90;;;;;;4898484;29;20269;-73
2024/03/10 11:45:54;;;;;;;6.40;3.33;;;13.60;99.90;;;;;;4898096;29;20258;-74
2024/03/10 11:48:23;;;;;;;8.40;4.70;;;13.30;99.90;;;;;;4898409;29;20305;-73
2024/03/10 11:50:50;;;;;;;8.70;4.10;;;13.30;99.90;;;;;;4897976;29;20231;-72
2024/03/10 11:53:17;;;;;;;7.83;3.47;;;13.20;99.90;;;;;;4898037;29;20273;-73
2024/03/10 11:55:44;;;;;;;9.43;4.07;;;13.50;99.90;;;;;;4898391;29;20262;-73
2024/03/10 11:58:11;;;;;;;6.97;4.13;;;13.60;99.90;;;;;;4898587;29;20213;-73
2024/03/10 12:00:41;;;;;;;7.47;3.50;;;13.90;99.90;;;;;;4898116;29;20632;-74
2024/03/10 12:03:08;;;;;;;7.33;3.90;;;14.30;99.90;;;;;;4898050;29;20656;-73
2024/03/10 12:05:36;;;;;;;7.20;3.70;;;14.50;99.90;;;;;;4898011;29;20218;-74
2024/03/10 12:08:05;;;;;;;9.17;4.60;;;14.50;99.90;;;;;;4897993;29;20214;-74
2024/03/10 12:10:33;;;;;;;9.47;4.30;;;14.40;99.90;;;;;;4898104;29;20655;-74
2024/03/10 12:13:00;;;;;;;8.00;4.00;;;14.20;99.90;;;;;;4893285;29;20206;-75
2024/03/10 12:15:28;;;;;;;12.70;5.10;;;14.10;99.90;;;;;;4897371;29;20242;-74
2024/03/10 12:18:00;;;;;;;8.20;3.77;;;14.10;99.90;;;;;;4897186;29;20564;-74
2024/03/10 12:20:29;;;;;;;9.60;4.37;;;14.10;99.90;;;;;;4897616;29;20595;-74
2024/03/10 12:22:58;;;;;;;8.13;4.27;;;14.10;99.90;;;;;;4888792;29;20753;-74
2024/03/10 12:25:25;;;;;;;8.20;4.13;;;14.00;99.90;;;;;;4879292;29;20218;-75
2024/03/10 12:27:52;;;;;;;7.83;4.30;;;14.00;99.90;;;;;;4889862;29;20203;-74
2024/03/10 12:30:21;;;;;;;9.33;3.93;;;13.90;99.90;;;;;;4901096;29;20262;-75
2024/03/10 12:32:50;;;;;;;12.00;4.03;;;13.90;99.90;;;;;;4897938;29;20311;-75
2024/03/10 12:35:21;;;;;;;10.33;4.30;;;13.90;99.90;;;;;;4897362;29;20575;-74
2024/03/10 12:37:48;;;;;;;7.67;3.90;;;13.90;99.90;;;;;;4897157;29;20726;-75
2024/03/10 12:40:15;;;;;;;9.47;4.30;;;14.00;99.90;;;;;;4892679;29;20234;-74
2024/03/10 12:42:43;;;;;;;7.53;4.23;;;14.10;99.90;;;;;;4895817;29;20328;-74
2024/03/10 12:45:15;;;;;;;6.80;3.97;;;13.80;99.90;;;;;;4895439;29;20289;-75
2024/03/10 12:47:43;;;;;;;9.23;4.33;;;13.20;99.90;;;;;;4895525;29;20253;-75
2024/03/10 12:50:10;;;;;;;9.07;4.70;;;13.30;99.90;;;;;;4895868;29;20403;-71
2024/03/10 12:52:38;;;;;;;9.53;4.77;;;13.80;99.90;;;;;;4895817;29;20214;-72
2024/03/10 12:55:07;;;;;;;9.30;4.20;;;14.30;99.90;;;;;;4896076;29;20238;-76
2024/03/10 12:57:34;;;;;;;7.30;3.83;;;14.10;99.90;;;;;;4895771;29;20202;-74
2024/03/10 13:00:04;;;;;;;9.03;4.60;;;13.90;99.90;;;;;;4895592;29;20257;-73
2024/03/10 13:02:32;;;;;;;9.00;4.80;;;13.60;99.90;;;;;;4895703;29;20230;-74
2024/03/10 13:04:59;;;;;;;7.73;4.23;;;13.70;99.90;;;;;;4895606;29;20261;-73
2024/03/10 13:07:26;;;;;;;8.47;4.00;;;13.80;99.90;;;;;;4896039;29;20253;-74
2024/03/10 13:09:55;;;;;;;8.97;4.50;;;14.00;99.90;;;;;;4891273;29;20245;-73
2024/03/10 13:12:22;;;;;;;8.80;4.40;;;14.20;99.90;;;;;;4895714;29;20206;-73
2024/03/10 13:14:49;;;;;;;10.10;4.07;;;14.30;99.90;;;;;;4895226;29;20639;-73
2024/03/10 13:17:17;;;;;;;8.47;4.43;;;14.30;99.90;;;;;;4895606;29;20246;-73
2024/03/10 13:19:44;;;;;;;8.37;4.20;;;14.40;99.90;;;;;;4895488;29;20697;-73
2024/03/10 13:22:11;;;;;;;9.17;4.47;;;14.70;99.90;;;;;;4895049;29;20234;-73
2024/03/10 13:24:39;;;;;;;9.43;4.67;;;14.80;99.90;;;;;;4877204;29;20215;-74
2024/03/10 13:27:07;;;;;;;8.27;4.30;;;14.80;99.90;;;;;;4876968;29;20676;-73
2024/03/10 13:29:35;;;;;;;9.17;4.13;;;14.90;99.90;;;;;;4895287;29;20608;-73
2024/03/10 13:32:02;;;;;;;10.40;4.80;;;15.10;99.90;;;;;;4895699;29;20306;-74
2024/03/10 13:34:29;;;;;;;9.00;4.70;;;15.10;99.90;;;;;;4894958;29;20238;-73
2024/03/10 13:36:56;;;;;;;9.27;4.77;;;15.20;99.90;;;;;;4895069;29;20298;-72
2024/03/10 13:39:26;;;;;;;9.80;4.87;;;15.30;99.90;;;;;;4898222;29;20242;-73
2024/03/10 13:41:54;;;;;;;9.13;4.83;;;15.40;99.90;;;;;;4898804;29;20231;-73
2024/03/10 13:44:22;;;;;;;9.03;4.77;;;15.40;99.90;;;;;;4899108;29;20321;-73
2024/03/10 13:46:49;;;;;;;9.53;4.90;;;15.30;99.90;;;;;;4898974;29;20297;-75
2024/03/10 13:49:16;;;;;;;9.57;4.63;;;15.30;99.90;;;;;;4898397;29;20242;-76
2024/03/10 13:51:46;;;;;;;8.37;4.40;;;15.30;99.90;;;;;;4898841;29;20269;-73
2024/03/10 13:54:13;;;;;;;8.30;3.87;;;15.20;99.90;;;;;;4899014;29;20245;-73
2024/03/10 13:56:40;;;;;;;9.57;4.70;;;15.30;99.90;;;;;;4898801;29;20214;-72
2024/03/10 13:59:08;;;;;;;11.03;4.50;;;15.60;99.90;;;;;;4898456;29;20234;-72
2024/03/10 14:01:36;;;;;;;11.47;4.90;;;15.80;99.90;;;;;;4898561;29;20241;-72
2024/03/10 14:04:04;;;;;;;9.93;4.67;;;16.10;99.90;;;;;;4897572;29;20269;-72
2024/03/10 14:06:32;;;;;;;8.43;4.97;;;16.20;99.90;;;;;;4894143;29;20242;-72
2024/03/10 14:08:59;;;;;;;10.63;5.13;;;16.20;99.90;;;;;;4896093;29;20297;-71
2024/03/10 14:11:26;;;;;;;10.23;5.10;;;16.30;99.90;;;;;;4895276;29;20266;-71
2024/03/10 14:13:53;;;;;;;10.07;5.33;;;16.50;99.90;;;;;;4888741;29;20257;-72
2024/03/10 14:16:20;;;;;;;9.70;5.03;;;16.60;99.90;;;;;;4882432;29;20215;-71
2024/03/10 14:18:48;;;;;;;8.30;4.37;;;16.60;99.90;;;;;;4889201;29;20238;-71
2024/03/10 14:21:15;;;;;;;7.63;4.27;;;16.50;99.90;;;;;;4897994;29;20273;-71
2024/03/10 14:23:42;;;;;;;9.47;5.20;;;16.30;99.90;;;;;;4897791;29;20277;-71
2024/03/10 14:26:09;;;;;;;8.67;4.70;;;16.30;99.90;;;;;;4897767;29;20238;-71
2024/03/10 14:28:37;;;;;;;10.40;5.03;;;16.40;99.90;;;;;;4894015;29;20297;-71
2024/03/10 14:31:07;;;;;;;9.50;5.20;;;16.30;99.90;;;;;;4884943;29;20237;-71
2024/03/10 14:33:34;;;;;;;9.23;5.00;;;15.90;99.90;;;;;;4884460;29;20210;-71
2024/03/10 14:36:02;;;;;;;11.47;6.00;;;15.80;99.90;;;;;;4884644;29;21167;-71
2024/03/10 14:38:30;;;;;;;8.60;4.57;;;15.70;99.90;;;;;;4885001;29;20230;-72
2024/03/10 14:40:58;;;;;;;10.47;4.90;;;15.80;99.90;;;;;;4887826;29;20239;-73
2024/03/10 14:43:25;;;;;;;8.93;5.03;;;15.50;99.90;;;;;;4884710;29;20226;-71
2024/03/10 14:45:54;;;;;;;10.20;4.60;;;15.60;99.90;;;;;;4897470;29;20226;-71
2024/03/10 14:48:21;;;;;;;8.63;4.53;;;15.70;99.90;;;;;;4895737;29;20241;-72
2024/03/10 14:50:48;;;;;;;10.57;5.40;;;15.70;99.90;;;;;;4897116;29;20321;-71
2024/03/10 14:53:16;;;;;;;8.97;4.90;;;15.70;99.90;;;;;;4897624;29;20202;-72
2024/03/10 14:55:43;;;;;;;9.83;4.97;;;15.60;99.90;;;;;;4897587;29;20624;-71
2024/03/10 14:58:11;;;;;;;9.30;4.63;;;15.30;99.90;;;;;;4889851;29;20234;-71
2024/03/10 15:00:46;;;;;;;8.40;4.77;;;14.90;99.90;;;;;;4897390;29;20245;-72
2024/03/10 15:03:16;;;;;;;9.97;5.10;;;14.40;99.90;;;;;;4897073;29;20268;-71
2024/03/10 15:05:44;;;;;;;8.37;4.90;;;14.20;99.90;;;;;;4897000;29;20613;-71
2024/03/10 15:08:15;;;;;;;10.43;4.70;;;14.10;99.90;;;;;;4897656;29;20257;-72
2024/03/10 15:10:45;;;;;;;11.27;4.90;;;14.10;99.90;;;;;;4896985;29;20362;-72
2024/03/10 15:13:15;;;;;;;8.27;4.60;;;13.90;99.90;;;;;;4897408;29;20571;-72
2024/03/10 15:15:43;;;;;;;8.77;5.00;;;13.90;99.90;;;;;;4897609;29;20404;-71
2024/03/10 15:18:10;;;;;;;9.37;5.40;;;13.90;99.90;;;;;;4897113;29;20214;-71
2024/03/10 15:20:39;;;;;;;9.60;4.50;;;14.00;99.90;;;;;;4896670;29;20369;-71
2024/03/10 15:23:06;;;;;;;9.30;4.57;;;14.10;99.90;;;;;;4896751;29;20198;-71
2024/03/10 15:25:35;;;;;;;10.17;5.33;;;14.00;99.90;;;;;;4897205;29;20491;-71
2024/03/10 15:28:03;;;;;;;10.00;5.10;;;13.80;99.90;;;;;;4897153;29;20213;-71
2024/03/10 15:30:30;;;;;;;10.17;5.70;;;13.90;99.90;;;;;;4894798;29;20261;-71
2024/03/10 15:32:57;;;;;;;11.80;5.83;;;14.00;99.90;;;;;;4885446;29;20258;-72
2024/03/10 15:35:24;;;;;;;10.93;5.53;;;14.00;99.90;;;;;;4888158;29;20210;-71
2024/03/10 15:37:52;;;;;;;11.47;6.23;;;14.10;99.90;;;;;;4879898;29;20238;-71
2024/03/10 15:40:19;;;;;;;12.00;5.90;;;14.00;99.90;;;;;;4894380;29;20662;-71
2024/03/10 15:42:47;;;;;;;12.67;7.50;;;13.90;99.90;;;;;;4887633;29;20215;-72
2024/03/10 15:45:17;;;;;;;14.17;6.93;;;13.80;99.90;;;;;;4886482;29;20229;-72
2024/03/10 15:47:45;;;;;;;13.13;6.10;;;13.80;99.90;;;;;;4896521;29;20717;-72
2024/03/10 15:50:13;;;;;;;12.30;5.97;;;13.70;99.90;;;;;;4896530;29;20230;-71
2024/03/10 15:52:40;;;;;;;13.87;5.97;;;13.70;99.90;;;;;;4896798;29;20309;-73
2024/03/10 15:55:08;;;;;;;11.30;5.90;;;13.50;99.90;;;;;;4896158;29;20260;-71
2024/03/10 15:57:37;;;;;;;12.40;6.30;;;13.40;99.90;;;;;;4896595;29;20214;-73
2024/03/10 16:00:05;;;;;;;11.97;6.03;;;13.30;99.90;;;;;;4904742;23;20243;-72
2024/03/10 16:02:34;;;;;;;13.97;6.53;;;13.20;99.90;;;;;;4899804;29;20226;-73
2024/03/10 16:05:07;;;;;;;11.43;5.43;;;13.20;99.90;;;;;;4911499;29;20214;-72
2024/03/10 16:07:34;;;;;;;12.03;5.87;;;13.20;99.90;;;;;;4909934;29;20288;-73
2024/03/10 16:10:01;;;;;;;12.20;5.57;;;13.30;99.90;;;;;;4910414;29;20754;-73
2024/03/10 16:12:28;;;;;;;13.90;5.67;;;13.40;99.90;;;;;;4916488;29;20237;-73
2024/03/10 16:14:56;;;;;;;12.30;5.87;;;13.30;99.90;;;;;;4909334;29;20277;-72
2024/03/10 16:17:23;;;;;;;14.53;6.93;;;13.20;99.90;;;;;;4897847;29;20242;-73
2024/03/10 16:19:51;;;;;;;12.40;6.13;;;13.00;99.90;;;;;;4897055;29;20699;-72
2024/03/10 16:22:19;;;;;;;11.43;6.00;;;12.90;99.90;;;;;;4912019;29;20256;-73
2024/03/10 16:24:47;;;;;;;13.33;7.07;;;12.90;99.90;;;;;;4916599;29;20670;-72
2024/03/10 16:27:15;;;;;;;15.00;7.20;;;12.90;99.90;;;;;;4916721;29;20221;-73
2024/03/10 16:29:44;;;;;;;12.87;6.40;;;12.90;99.90;;;;;;4916518;29;20296;-73
2024/03/10 16:32:11;;;;;;;12.77;6.20;;;13.10;99.90;;;;;;4916722;29;20210;-73
2024/03/10 16:34:41;;;;;;;11.57;6.23;;;13.10;99.90;;;;;;4916274;29;20594;-72
2024/03/10 16:37:26;;;;;;;12.77;6.60;;;13.30;99.90;;;;;;4916410;29;20213;-72
2024/03/10 16:39:53;;;;;;;21.53;9.20;;;13.40;99.90;;;;;;4916420;29;20227;-73
2024/03/10 16:42:20;;;;;;;13.77;6.47;;;13.50;99.90;;;;;;4916411;29;20244;-73
2024/03/10 16:44:47;;;;;;;13.07;6.67;;;13.60;99.90;;;;;;4916401;29;20237;-73
2024/03/10 16:47:14;;;;;;;19.00;8.20;;;13.40;99.90;;;;;;4916246;29;20205;-73
2024/03/10 16:49:47;;;;;;;20.57;9.43;;;13.20;99.90;;;;;;4916539;29;20245;-72
2024/03/10 16:52:15;;;;;;;17.57;8.00;;;13.10;99.90;;;;;;4916640;29;20206;-72
2024/03/10 16:54:43;;;;;;;20.63;8.83;;;13.00;99.90;;;;;;4916131;29;20344;-73
2024/03/10 16:57:10;;;;;;;23.77;9.00;;;12.90;99.90;;;;;;4916003;29;20293;-73
2024/03/10 16:59:36;;;;;;;20.57;8.37;;;13.00;99.90;;;;;;4916495;29;20205;-73
2024/03/10 17:02:04;;;;;;;20.43;9.13;;;13.00;99.90;;;;;;4902789;29;20234;-74
2024/03/10 17:04:31;;;;;;;20.33;9.07;;;13.00;99.90;;;;;;4895662;29;20214;-73
2024/03/10 17:06:58;;;;;;;15.03;7.83;;;13.00;99.90;;;;;;4895794;29;20262;-73
2024/03/10 17:09:27;;;;;;;19.80;8.27;;;12.90;99.90;;;;;;4892500;29;20676;-74
2024/03/10 17:11:55;;;;;;;17.07;8.00;;;12.90;99.90;;;;;;4896882;29;20237;-81
2024/03/10 17:14:21;;;;;;;17.33;7.60;;;12.90;99.90;;;;;;4902010;29;20239;-73
2024/03/10 17:16:48;;;;;;;16.93;7.90;;;12.90;99.90;;;;;;4918251;29;20245;-73
2024/03/10 17:19:16;;;;;;;23.97;10.97;;;12.80;99.90;;;;;;4906052;29;20245;-74
2024/03/10 17:21:43;;;;;;;20.13;9.83;;;12.80;99.90;;;;;;4899094;29;20691;-79
2024/03/10 17:24:10;;;;;;;18.63;8.23;;;12.70;99.90;;;;;;4899449;29;20562;-76
2024/03/10 17:26:39;;;;;;;16.63;7.50;;;12.60;99.90;;;;;;4903129;29;20206;-73
2024/03/10 17:29:06;;;;;;;15.13;7.27;;;12.60;99.90;;;;;;4907525;29;20250;-73
2024/03/10 17:31:33;;;;;;;18.70;7.43;;;12.60;99.90;;;;;;4899214;29;20230;-73
2024/03/10 17:34:00;;;;;;;16.23;6.97;;;12.40;99.90;;;;;;4899084;29;20599;-73
2024/03/10 17:36:30;;;;;;;12.13;5.93;;;12.40;99.90;;;;;;4899612;29;20215;-82
2024/03/10 17:38:59;;;;;;;13.87;7.03;;;12.40;99.90;;;;;;4900441;29;20217;-83
2024/03/10 17:41:26;;;;;;;13.13;6.93;;;12.40;99.90;;;;;;4898860;29;20347;-73
2024/03/10 17:43:54;;;;;;;18.10;8.50;;;12.20;99.90;;;;;;4899780;29;20249;-73
2024/03/10 17:46:21;;;;;;;13.57;7.10;;;12.10;99.90;;;;;;4899519;29;20249;-81
2024/03/10 17:48:48;;;;;;;13.23;5.97;;;12.00;99.90;;;;;;4899331;29;20617;-75
2024/03/10 17:51:15;;;;;;;11.10;5.10;;;11.90;99.90;;;;;;4898642;29;20226;-76
2024/03/10 17:53:45;;;;;;;12.77;5.63;;;11.70;99.90;;;;;;4898754;29;20206;-82
2024/03/10 17:56:14;;;;;;;9.83;5.57;;;11.60;99.90;;;;;;4898457;29;20316;-73
2024/03/10 17:58:41;;;;;;;12.43;5.67;;;11.60;99.90;;;;;;4898776;29;20202;-74
2024/03/10 18:01:09;;;;;;;10.77;5.20;;;11.50;99.90;;;;;;4898326;29;20576;-73
2024/03/10 18:03:37;;;;;;;9.70;4.87;;;11.50;99.90;;;;;;4901059;29;20211;-73
2024/03/10 18:06:05;;;;;;;9.80;4.30;;;11.40;99.90;;;;;;4898187;29;20640;-72
2024/03/10 18:08:32;;;;;;;11.37;4.60;;;11.30;99.90;;;;;;4898147;29;20217;-72
2024/03/10 18:10:59;;;;;;;7.93;4.33;;;11.30;99.90;;;;;;4898277;29;20269;-73
2024/03/10 18:13:26;;;;;;;10.07;4.83;;;11.10;99.90;;;;;;4898647;29;20210;-73
2024/03/10 18:15:56;;;;;;;8.20;4.17;;;11.10;99.90;;;;;;4898720;29;20334;-73
2024/03/10 18:18:24;;;;;;;7.93;3.60;;;11.10;99.90;;;;;;4898628;29;20206;-74
2024/03/10 18:20:52;;;;;;;10.63;4.53;;;11.20;99.90;;;;;;4897925;29;20715;-78
2024/03/10 18:23:19;;;;;;;11.87;4.97;;;11.10;99.90;;;;;;4900013;29;20214;-73
2024/03/10 18:25:46;;;;;;;7.33;3.57;;;11.20;99.90;;;;;;4898093;29;20553;-74
2024/03/10 18:28:15;;;;;;;7.17;3.70;;;11.20;99.90;;;;;;4898185;29;20206;-73
2024/03/10 18:30:43;;;;;;;8.67;3.50;;;11.10;99.90;;;;;;4878861;29;20266;-72
2024/03/10 18:33:10;;;;;;;6.30;3.27;;;11.10;99.90;;;;;;4894935;29;20640;-72
2024/03/10 18:35:39;;;;;;;6.83;3.93;;;11.10;99.90;;;;;;4897278;29;20266;-73
2024/03/10 18:38:06;;;;;;;7.30;3.90;;;11.10;99.90;;;;;;4897186;29;21339;-74
2024/03/10 18:40:33;;;;;;;5.50;3.07;;;11.20;99.90;;;;;;4898771;29;20253;-73
2024/03/10 18:43:00;;;;;;;9.27;3.90;;;11.30;99.90;;;;;;4897754;29;20261;-74
2024/03/10 18:45:28;;;;;;;6.80;3.37;;;11.40;99.90;;;;;;4897051;29;20314;-73
2024/03/10 18:47:56;;;;;;;7.70;3.03;;;11.50;99.90;;;;;;4897163;29;20202;-73
2024/03/10 18:50:24;;;;;;;6.83;3.43;;;11.40;99.90;;;;;;4897638;29;20289;-72
2024/03/10 18:52:52;;;;;;;8.00;3.57;;;11.40;99.90;;;;;;4897366;29;20207;-73
2024/03/10 18:55:19;;;;;;;6.37;3.37;;;11.40;99.90;;;;;;4897043;29;20266;-74
2024/03/10 18:57:46;;;;;;;13.40;4.83;;;11.40;99.90;;;;;;4896986;29;20310;-73
2024/03/10 19:00:13;;;;;;;10.70;5.33;;;11.40;99.90;;;;;;4892033;29;20318;-74
2024/03/10 19:02:40;;;;;;;8.90;4.57;;;11.20;99.90;;;;;;4895879;29;20242;-72
2024/03/10 19:05:07;;;;;;;7.43;3.97;;;11.00;99.90;;;;;;4899717;29;20643;-72
2024/03/10 19:07:35;;;;;;;9.63;4.67;;;10.80;99.90;;;;;;4898523;29;20718;-72
2024/03/10 19:10:03;;;;;;;7.27;4.00;;;10.80;99.90;;;;;;4898207;29;20226;-72
2024/03/10 19:12:30;;;;;;;9.10;4.23;;;10.70;99.90;;;;;;4898726;29;20246;-71
2024/03/10 19:14:57;;;;;;;8.93;4.80;;;10.50;99.90;;;;;;4897757;29;20783;-71
2024/03/10 19:17:26;;;;;;;7.97;3.67;;;10.40;99.90;;;;;;4898574;29;20635;-73
2024/03/10 19:19:55;;;;;;;8.43;4.00;;;10.30;99.90;;;;;;4897230;29;20206;-72
2024/03/10 19:22:23;;;;;;;8.10;3.17;;;10.30;99.90;;;;;;4898240;29;20211;-71
2024/03/10 19:24:50;;;;;;;8.73;3.73;;;10.10;99.90;;;;;;4897979;29;20667;-72
2024/03/10 19:27:18;;;;;;;8.73;3.73;;;10.20;99.90;;;;;;4897800;29;20214;-72
2024/03/10 19:29:45;;;;;;;5.63;3.23;;;10.10;99.90;;;;;;4897687;29;20305;-72
2024/03/10 19:32:12;;;;;;;8.77;3.63;;;10.10;99.90;;;;;;4897330;29;20234;-72
2024/03/10 19:34:39;;;;;;;11.33;4.20;;;10.10;99.90;;;;;;4897531;29;20269;-72
2024/03/10 19:37:06;;;;;;;7.60;3.40;;;10.00;99.90;;;;;;4897251;29;20297;-72
2024/03/10 19:39:33;;;;;;;8.20;3.70;;;10.10;99.90;;;;;;4896548;29;20257;-72
2024/03/10 19:42:00;;;;;;;8.60;4.00;;;10.30;99.90;;;;;;4897633;29;20747;-73
2024/03/10 19:44:28;;;;;;;6.80;3.17;;;10.40;99.90;;;;;;4897689;29;20250;-72
2024/03/10 19:46:56;;;;;;;6.30;3.30;;;10.50;99.90;;;;;;4897726;29;20298;-72
2024/03/10 19:49:22;;;;;;;9.57;4.20;;;10.60;99.90;;;;;;4897435;29;20238;-72
2024/03/10 19:51:49;;;;;;;8.30;3.73;;;10.70;99.90;;;;;;4897644;29;20265;-72
2024/03/10 19:54:16;;;;;;;7.17;3.40;;;10.70;99.90;;;;;;4897133;29;20314;-72
2024/03/10 19:56:43;;;;;;;7.63;3.80;;;10.70;99.90;;;;;;4897375;29;20242;-72
2024/03/10 19:59:10;;;;;;;7.17;3.60;;;10.70;99.90;;;;;;4889676;29;20250;-72
2024/03/10 20:01:39;;;;;;;7.20;4.00;;;10.70;99.90;;;;;;4897234;29;20662;-72
2024/03/10 20:04:06;;;;;;;8.23;3.83;;;10.80;99.90;;;;;;4897960;29;20210;-72
2024/03/10 20:06:33;;;;;;;8.13;3.63;;;10.90;99.90;;;;;;4897188;29;20308;-73
2024/03/10 20:09:00;;;;;;;6.63;3.70;;;10.80;99.90;;;;;;4893090;29;20249;-73
2024/03/10 20:11:28;;;;;;;7.93;3.70;;;10.80;99.90;;;;;;4887081;29;20712;-73
2024/03/10 20:13:54;;;;;;;8.60;4.33;;;10.90;99.90;;;;;;4879539;29;20215;-73
2024/03/10 20:16:21;;;;;;;9.10;3.97;;;10.90;99.90;;;;;;4879432;29;20329;-73
2024/03/10 20:18:52;;;;;;;8.37;4.23;;;10.90;99.90;;;;;;4879423;29;20239;-73
2024/03/10 20:21:20;;;;;;;7.13;3.73;;;11.00;99.90;;;;;;4878837;29;20231;-74
2024/03/10 20:23:47;;;;;;;11.60;4.47;;;11.00;99.90;;;;;;4879034;29;20301;-73
2024/03/10 20:26:14;;;;;;;11.00;4.23;;;11.00;99.90;;;;;;4879099;29;20599;-74
2024/03/10 20:28:41;;;;;;;11.20;5.00;;;11.00;99.90;;;;;;4879217;29;20264;-73
2024/03/10 20:31:07;;;;;;;7.23;4.47;;;10.90;99.90;;;;;;4879036;29;20314;-75
2024/03/10 20:33:36;;;;;;;7.73;4.40;;;10.90;99.90;;;;;;4879386;29;20298;-73
2024/03/10 20:36:05;;;;;;;7.00;4.30;;;10.90;99.90;;;;;;4879105;29;20329;-73
2024/03/10 20:38:32;;;;;;;7.97;4.33;;;10.80;99.90;;;;;;4879601;29;20215;-73
2024/03/10 20:40:59;;;;;;;8.60;4.63;;;10.90;99.90;;;;;;4897262;29;20324;-73
2024/03/10 20:43:26;;;;;;;8.87;4.37;;;10.90;99.90;;;;;;4897434;29;20293;-73
2024/03/10 20:45:52;;;;;;;8.70;4.23;;;10.90;99.90;;;;;;4897796;29;20245;-73
2024/03/10 20:48:21;;;;;;;7.60;4.33;;;10.90;99.90;;;;;;4902600;29;20728;-73
2024/03/10 20:50:50;;;;;;;8.80;4.77;;;10.90;99.90;;;;;;4903472;29;20241;-73
2024/03/10 20:53:19;;;;;;;7.83;4.63;;;11.00;99.90;;;;;;4903891;29;20237;-73
2024/03/10 20:55:46;;;;;;;7.87;4.80;;;11.00;99.90;;;;;;4903848;29;20241;-73
2024/03/10 20:58:13;;;;;;;8.57;4.10;;;11.00;99.90;;;;;;4903972;29;20241;-74
2024/03/10 21:00:40;;;;;;;8.30;4.13;;;11.00;99.90;;;;;;4903673;29;20330;-74
2024/03/10 21:03:07;;;;;;;9.83;5.20;;;11.00;99.90;;;;;;4903682;29;20636;-74
2024/03/10 21:05:35;;;;;;;10.53;5.17;;;11.10;99.90;;;;;;4903952;29;20644;-73
2024/03/10 21:08:01;;;;;;;11.07;5.07;;;11.10;99.90;;;;;;4904057;29;20222;-73
2024/03/10 21:10:30;;;;;;;9.20;4.63;;;11.00;99.90;;;;;;4902956;29;20234;-74
2024/03/10 21:12:56;;;;;;;10.83;5.20;;;11.10;99.90;;;;;;4903423;29;20695;-73
2024/03/10 21:15:23;;;;;;;12.10;5.57;;;11.10;99.90;;;;;;4903606;29;20266;-73
2024/03/10 21:17:52;;;;;;;9.53;4.63;;;11.10;99.90;;;;;;4903475;29;20696;-74
2024/03/10 21:20:19;;;;;;;11.20;5.57;;;11.10;99.90;;;;;;4903107;29;20628;-73
2024/03/10 21:22:47;;;;;;;11.33;5.87;;;11.10;99.90;;;;;;4903399;29;20242;-74
2024/03/10 21:25:14;;;;;;;11.00;5.73;;;11.20;99.90;;;;;;4903843;29;20218;-73
2024/03/10 21:27:43;;;;;;;9.50;4.40;;;11.00;99.90;;;;;;4903656;29;20244;-74
2024/03/10 21:30:12;;;;;;;12.67;5.70;;;10.80;99.90;;;;;;4903397;29;20707;-73
2024/03/10 21:32:40;;;;;;;8.53;4.30;;;10.80;99.90;;;;;;4903891;29;20675;-74
2024/03/10 21:35:08;;;;;;;9.57;4.90;;;10.70;99.90;;;;;;4903451;29;20234;-73
2024/03/10 21:37:35;;;;;;;8.83;4.27;;;10.80;99.90;;;;;;4903591;29;20712;-73
2024/03/10 21:40:09;;;;;;;11.13;4.87;;;10.80;99.90;;;;;;4903332;29;20234;-75
2024/03/10 21:42:37;;;;;;;6.97;4.37;;;10.80;99.90;;;;;;4897446;29;20214;-73
2024/03/10 21:45:06;;;;;;;10.30;5.10;;;10.60;99.90;;;;;;4903336;29;20240;-72
2024/03/10 21:47:33;;;;;;;9.57;4.90;;;10.70;99.90;;;;;;4903397;29;20292;-73
2024/03/10 21:50:00;;;;;;;9.80;4.63;;;10.80;99.90;;;;;;4903645;29;20280;-73
2024/03/10 21:52:27;;;;;;;10.00;4.50;;;10.80;99.90;;;;;;4903379;29;20249;-73
2024/03/10 21:54:55;;;;;;;9.40;4.53;;;10.70;99.90;;;;;;4903436;29;20246;-73
2024/03/10 21:57:22;;;;;;;9.93;4.77;;;10.80;99.90;;;;;;4903517;29;20210;-73
2024/03/10 22:02:30;;;;;;;8.17;3.93;;;10.60;99.90;;;;;;4917778;29;20217;-74
2024/03/10 22:04:57;;;;;;;6.77;3.87;;;10.70;99.90;;;;;;4919104;29;20241;-73
2024/03/10 22:07:23;;;;;;;10.30;4.27;;;10.80;99.90;;;;;;4918710;29;20217;-74
2024/03/10 22:09:51;;;;;;;8.53;4.33;;;10.90;99.90;;;;;;4917723;29;20213;-74
2024/03/10 22:12:18;;;;;;;8.83;3.97;;;10.90;99.90;;;;;;4899884;29;20250;-74
